Nearby METAR Reports

 

KAVP - Avoca/Wilkes B., Pennsylvania, USA
Distance from station: N 16mi, 25km
Updated: 07/03/2022 6:54pm
Clear
Clear
 Wind from N
Wind: N 9 mph , 15 km/h
Temperature: 81°F , 27°C
Dew Point: 45°F , 7°C
Humidity: 28%
Barometer: 30.08 inHg , 1018.6 hPa
Clouds: Clear
Visibility: 10 miles , 16 km
2022/07/03 22:54 KAVP 032254Z 36008KT 10SM CLR 27/07 A3008 RMK AO2 SLP179 T02720072 $
KMPO - Mt. Pocono, Pennsylvania, USA
Distance from station: E 20mi, 33km
Updated: 07/03/2022 6:53pm
Clear
Clear
 Wind from WNW
Wind: WNW 8 mph , 13 km/h
Temperature: 73°F , 23°C
Dew Point: 46°F , 8°C
Humidity: 38%
Barometer: 30.12 inHg , 1020 hPa
Clouds: Clear
Visibility: 10 miles , 16 km
2022/07/03 22:53 KMPO 032253Z AUTO 29007KT 10SM CLR 23/08 A3012 RMK AO2 SLP189 T02280078
 
KABE - Allentown, Pennsylvania, USA
Distance from station: SSE 36mi, 58km
Updated: 07/03/2022 6:51pm
Clear
Clear
 Wind from N
Wind: N 10 mph , 17 km/h
Temperature: 82°F , 28°C
Heat Index: 81°F , 27°C
Dew Point: 55°F , 13°C
Humidity: 40%
Barometer: 30.04 inHg , 1017.3 hPa
Clouds: Clear
Visibility: 10 miles , 16 km
2022/07/03 22:51 KABE 032251Z 01009KT 10SM CLR 28/13 A3004 RMK AO2 SLP169 T02780128
KXLL - Allentown Queen, Pennsylvania, USA
Distance from station: SSE 41mi, 65km
Updated: 07/03/2022 7:35pm
Clear
Clear
 Wind from N
Wind: N 5 mph , 7 km/h, Gust: 16 mph , 26 km/h
Temperature: 81°F , 27°C
Heat Index: 81°F , 27°C
Dew Point: 55°F , 13°C
Humidity: 42%
Barometer: 30.06 inHg , 1017.9 hPa
Clouds: Clear
Visibility: 10 miles , 16 km
2022/07/03 23:35 KXLL 032335Z AUTO 36004G14KT 10SM CLR 27/13 A3006 RMK AO2